createdAt,value
2022-09-23T00:00:58.050Z,23.9800
2022-09-23T00:02:00.459Z,23.9700
2022-09-23T00:03:02.593Z,23.9800
2022-09-23T00:04:04.727Z,23.9800
2022-09-23T00:05:06.956Z,23.9900
2022-09-23T00:06:09.142Z,23.9900
2022-09-23T00:07:11.305Z,23.9700
2022-09-23T00:08:11.405Z,23.9700
2022-09-23T00:09:13.568Z,23.9800
2022-09-23T00:10:15.774Z,23.9600
2022-09-23T00:11:17.938Z,23.9300
2022-09-23T00:12:20.151Z,23.9300
2022-09-23T00:13:22.386Z,23.9400
2022-09-23T00:14:24.572Z,23.9400
2022-09-23T00:15:26.793Z,23.9500
2022-09-23T00:16:29.127Z,23.9600
2022-09-23T00:17:31.238Z,23.9500
2022-09-23T00:18:33.481Z,23.9100
2022-09-23T00:19:35.681Z,23.9100
2022-09-23T00:20:37.928Z,23.9000
2022-09-23T00:21:40.171Z,23.9100
2022-09-23T00:22:42.416Z,23.9100
2022-09-23T00:23:44.733Z,23.9000
2022-09-23T00:24:46.973Z,23.9100
2022-09-23T00:25:49.192Z,23.9100
2022-09-23T00:26:51.463Z,23.9200
2022-09-23T00:27:53.693Z,23.9200
2022-09-23T00:28:55.895Z,23.9100
2022-09-23T00:29:57.999Z,23.9100
2022-09-23T00:30:58.083Z,23.8900
2022-09-23T00:32:00.236Z,23.9000
2022-09-23T00:33:02.442Z,23.8800
2022-09-23T00:34:04.666Z,23.8600
2022-09-23T00:35:06.866Z,23.8500
2022-09-23T00:36:06.979Z,23.8600
2022-09-23T00:37:09.172Z,23.8700
2022-09-23T00:38:11.405Z,23.8800
2022-09-23T00:39:13.642Z,23.8900
2022-09-23T00:40:15.965Z,23.8700
2022-09-23T00:41:16.058Z,23.8600
2022-09-23T00:42:18.338Z,23.8700
2022-09-23T00:43:20.632Z,23.8500
2022-09-23T00:44:22.938Z,23.8500
2022-09-23T00:45:25.191Z,23.8500
2022-09-23T00:46:27.606Z,23.8500
2022-09-23T00:47:29.817Z,23.8400
2022-09-23T00:48:32.123Z,23.8400
2022-09-23T00:49:34.481Z,23.8300
2022-09-23T00:50:36.748Z,23.8100
2022-09-23T00:51:36.905Z,23.8000
2022-09-23T00:52:39.166Z,23.8200
2022-09-23T00:53:41.455Z,23.8200
2022-09-23T00:54:43.811Z,23.8200
2022-09-23T00:55:46.034Z,23.8200
2022-09-23T00:56:48.328Z,23.8100
2022-09-23T00:57:50.611Z,23.8100
2022-09-23T00:58:50.751Z,23.7900
2022-09-23T00:59:53.084Z,23.8000
2022-09-23T01:00:55.375Z,23.8000
2022-09-23T01:01:57.736Z,23.8000
2022-09-23T01:02:59.938Z,23.8100
2022-09-23T01:04:02.261Z,23.8100
2022-09-23T01:05:04.533Z,23.7900
2022-09-23T01:06:04.621Z,23.7900
2022-09-23T01:07:06.917Z,23.8000
2022-09-23T01:08:09.184Z,23.8000
2022-09-23T01:09:11.438Z,23.7600
2022-09-23T01:10:13.686Z,23.7600
2022-09-23T01:11:15.897Z,23.7200
2022-09-23T01:12:18.171Z,23.7400
2022-09-23T01:13:20.442Z,23.7400
2022-09-23T01:14:20.495Z,23.7400
2022-09-23T01:15:22.806Z,23.7600
2022-09-23T01:16:25.092Z,23.7400
2022-09-23T01:17:27.292Z,23.7300
2022-09-23T01:18:29.557Z,23.7100
2022-09-23T01:19:31.824Z,23.7100
2022-09-23T01:20:34.134Z,23.7100
2022-09-23T01:21:36.352Z,23.7000
2022-09-23T01:22:36.444Z,23.6800
2022-09-23T01:23:38.657Z,23.6900
2022-09-23T01:24:40.893Z,23.6700
2022-09-23T01:25:43.109Z,23.6800
2022-09-23T01:26:45.249Z,23.6400
2022-09-23T01:27:45.352Z,23.6400
2022-09-23T01:28:47.646Z,23.6300
2022-09-23T01:29:49.931Z,23.6200
2022-09-23T01:30:52.230Z,23.6500
2022-09-23T01:31:54.398Z,23.6200
2022-09-23T01:32:56.628Z,23.6000
2022-09-23T01:33:58.821Z,23.5800
2022-09-23T01:35:01.065Z,23.5900
2022-09-23T01:36:03.343Z,23.5800
2022-09-23T01:37:05.543Z,23.5800
2022-09-23T01:38:07.808Z,23.6000
2022-09-23T01:39:10.088Z,23.6100
2022-09-23T01:40:12.359Z,23.5900
2022-09-23T01:41:14.498Z,23.6200
2022-09-23T01:42:16.689Z,23.6000
2022-09-23T01:43:18.901Z,23.6200
2022-09-23T01:44:21.039Z,23.6100
2022-09-23T01:45:23.197Z,23.6100
2022-09-23T01:46:25.387Z,23.5700
2022-09-23T01:47:27.519Z,23.5500
2022-09-23T01:48:29.778Z,23.5700
2022-09-23T01:49:31.920Z,23.5700
2022-09-23T01:50:32.047Z,23.5900
2022-09-23T01:51:34.356Z,23.5700
2022-09-23T01:52:36.549Z,23.5700
2022-09-23T01:53:38.979Z,23.5800
2022-09-23T01:54:41.011Z,23.5600
2022-09-23T01:55:43.292Z,23.5600
2022-09-23T01:56:45.616Z,23.5800
2022-09-23T01:57:47.886Z,23.5400
2022-09-23T01:58:48.049Z,23.5300
2022-09-23T01:59:50.348Z,23.5200
2022-09-23T02:00:52.743Z,23.5300
2022-09-23T02:01:54.971Z,23.5300
2022-09-23T02:02:57.159Z,23.5500
2022-09-23T02:03:59.378Z,23.5500
2022-09-23T02:05:01.559Z,23.5400
2022-09-23T02:06:03.815Z,23.5500
2022-09-23T02:07:03.925Z,23.4800
2022-09-23T02:08:06.141Z,23.4800
2022-09-23T02:09:08.509Z,23.5000
2022-09-23T02:10:10.626Z,23.4900
2022-09-23T02:11:12.839Z,23.5300
2022-09-23T02:12:15.092Z,23.5300
2022-09-23T02:13:17.305Z,23.5300
2022-09-23T02:14:19.552Z,23.5400
2022-09-23T02:15:21.812Z,23.5400
2022-09-23T02:16:24.080Z,23.5300
2022-09-23T02:17:26.343Z,23.5200
2022-09-23T02:18:28.546Z,23.4800
2022-09-23T02:19:30.764Z,23.4900
2022-09-23T02:20:33.014Z,23.5200
2022-09-23T02:21:35.328Z,23.4900
2022-09-23T02:22:37.666Z,23.4700
2022-09-23T02:23:39.864Z,23.4500
2022-09-23T02:24:42.197Z,23.4500
2022-09-23T02:25:44.494Z,23.4600
2022-09-23T02:26:44.649Z,23.4600
2022-09-23T02:27:46.942Z,23.4600
2022-09-23T02:28:49.179Z,23.4200
2022-09-23T02:29:51.462Z,23.4400
2022-09-23T02:30:51.602Z,23.4400
2022-09-23T02:31:53.936Z,23.4600
2022-09-23T02:32:56.222Z,23.4500
2022-09-23T02:33:58.445Z,23.4500
2022-09-23T02:34:58.561Z,23.4700
2022-09-23T02:36:00.813Z,23.4600
2022-09-23T02:37:03.055Z,23.4500
2022-09-23T02:38:05.367Z,23.4600
2022-09-23T02:39:05.484Z,23.3900
2022-09-23T02:40:07.825Z,23.4100
2022-09-23T02:41:10.095Z,23.3900
2022-09-23T02:42:12.400Z,23.4200
2022-09-23T02:43:14.759Z,23.4100
2022-09-23T02:44:17.064Z,23.4100
2022-09-23T02:45:19.398Z,23.4000
2022-09-23T02:46:21.799Z,23.4000
2022-09-23T02:47:24.057Z,23.4000
2022-09-23T02:48:26.382Z,23.3900
2022-09-23T02:49:28.656Z,23.3800
2022-09-23T02:50:31.018Z,23.3800
2022-09-23T02:51:33.264Z,23.3800
2022-09-23T02:52:35.580Z,23.3700
2022-09-23T02:53:37.896Z,23.3600
2022-09-23T02:54:40.145Z,23.3700
2022-09-23T02:55:40.323Z,23.3600
2022-09-23T02:56:42.573Z,23.3800
2022-09-23T02:57:44.881Z,23.3700
2022-09-23T02:58:47.263Z,23.3900
2022-09-23T02:59:49.571Z,23.3700
2022-09-23T03:00:51.907Z,23.3300
2022-09-23T03:01:54.254Z,23.2900
2022-09-23T03:02:56.509Z,23.3000
2022-09-23T03:03:58.856Z,23.3000
2022-09-23T03:05:01.068Z,23.2900
2022-09-23T03:06:01.190Z,23.3100
2022-09-23T03:07:03.466Z,23.3000
2022-09-23T03:08:05.790Z,23.3200
2022-09-23T03:09:08.151Z,23.3300
2022-09-23T03:10:10.431Z,23.3400
2022-09-23T03:11:12.765Z,23.3300
2022-09-23T03:12:15.062Z,23.3200
2022-09-23T03:13:17.383Z,23.3200
2022-09-23T03:14:19.727Z,23.3100
2022-09-23T03:15:22.028Z,23.3100
2022-09-23T03:16:24.467Z,23.3100
2022-09-23T03:17:26.615Z,23.3000
2022-09-23T03:18:28.858Z,23.2900
2022-09-23T03:19:28.985Z,23.2900
2022-09-23T03:20:31.228Z,23.2800
2022-09-23T03:21:33.535Z,23.2900
2022-09-23T03:22:35.836Z,23.2700
2022-09-23T03:23:35.982Z,23.2700
2022-09-23T03:24:38.321Z,23.3000
2022-09-23T03:25:40.596Z,23.2800
2022-09-23T03:26:42.913Z,23.2200
2022-09-23T03:27:45.151Z,23.1900
2022-09-23T03:28:47.445Z,23.2000
2022-09-23T03:29:49.780Z,23.2200
2022-09-23T03:30:49.903Z,23.1800
2022-09-23T03:31:52.274Z,23.2100
2022-09-23T03:32:54.519Z,23.2100
2022-09-23T03:33:56.752Z,23.2300
2022-09-23T03:34:59.075Z,23.2400
2022-09-23T03:36:01.346Z,23.2400
2022-09-23T03:37:03.627Z,23.2400
2022-09-23T03:38:03.757Z,23.2300
2022-09-23T03:39:06.168Z,23.1500
2022-09-23T03:40:08.408Z,23.1500
2022-09-23T03:41:10.506Z,23.1700
2022-09-23T03:42:12.767Z,23.1600
2022-09-23T03:43:15.016Z,23.1800
2022-09-23T03:44:17.306Z,23.1900
2022-09-23T03:45:19.601Z,23.1700
2022-09-23T03:46:19.663Z,23.1600
2022-09-23T03:47:21.960Z,23.1300
2022-09-23T03:48:24.308Z,23.1100
2022-09-23T03:49:26.638Z,23.1300
2022-09-23T03:50:28.997Z,23.1400
2022-09-23T03:51:31.288Z,23.1300
2022-09-23T03:52:33.631Z,23.1500
2022-09-23T03:53:35.984Z,23.1600
2022-09-23T03:54:38.318Z,23.1600
2022-09-23T03:55:38.532Z,23.1500
2022-09-23T03:56:40.816Z,23.1500
2022-09-23T03:57:43.201Z,23.1200
2022-09-23T03:58:45.392Z,23.1300
2022-09-23T03:59:45.531Z,23.1200
2022-09-23T04:00:47.887Z,23.1400
2022-09-23T04:01:50.166Z,23.1300
2022-09-23T04:02:52.369Z,23.1000
2022-09-23T04:03:54.673Z,23.0800
2022-09-23T04:04:56.969Z,23.1100
2022-09-23T04:05:59.329Z,23.1400
2022-09-23T04:06:59.492Z,23.1200
2022-09-23T04:08:01.836Z,23.1000
2022-09-23T04:09:04.179Z,23.0800
2022-09-23T04:10:04.334Z,23.1100
2022-09-23T04:11:06.578Z,23.0900
2022-09-23T04:12:08.763Z,23.0800
2022-09-23T04:13:11.067Z,23.1100
2022-09-23T04:14:13.353Z,23.0900
2022-09-23T04:15:15.691Z,23.0800
2022-09-23T04:16:18.097Z,23.0600
2022-09-23T04:17:20.301Z,23.0500
2022-09-23T04:18:22.623Z,23.0600
2022-09-23T04:19:24.962Z,23.0600
2022-09-23T04:20:27.204Z,23.0900
2022-09-23T04:21:29.547Z,23.0300
2022-09-23T04:22:31.804Z,23.0500
2022-09-23T04:23:34.101Z,23.0600
2022-09-23T04:24:36.357Z,23.0700
2022-09-23T04:25:38.621Z,23.0700
2022-09-23T04:26:40.946Z,23.0000
2022-09-23T04:27:41.045Z,22.9800
2022-09-23T04:28:43.350Z,22.9700
2022-09-23T04:29:45.614Z,22.9900
2022-09-23T04:30:47.901Z,23.0300
2022-09-23T04:31:48.230Z,23.0400
2022-09-23T04:32:50.335Z,23.0200
2022-09-23T04:33:52.631Z,23.0200
2022-09-23T04:34:54.912Z,23.0100
2022-09-23T04:35:55.070Z,22.9700
2022-09-23T04:36:57.397Z,22.9600
2022-09-23T04:37:59.669Z,22.9400
2022-09-23T04:39:02.087Z,22.9700
2022-09-23T04:40:04.361Z,22.9800
2022-09-23T04:41:06.531Z,22.9400
2022-09-23T04:42:08.845Z,22.9500
2022-09-23T04:43:13.333Z,22.9600
2022-09-23T04:44:11.284Z,22.9500
2022-09-23T04:45:13.553Z,22.9600
2022-09-23T04:46:15.914Z,22.9800
2022-09-23T04:47:18.182Z,22.9600
2022-09-23T04:48:20.430Z,22.8900
2022-09-23T04:49:22.724Z,22.9100
2022-09-23T04:50:22.878Z,22.9400
2022-09-23T04:51:25.191Z,22.9200
2022-09-23T04:52:27.549Z,22.9300
2022-09-23T04:53:27.716Z,22.9600
2022-09-23T04:54:30.041Z,22.9600
2022-09-23T04:55:32.382Z,22.9400
2022-09-23T04:56:34.717Z,22.9200
2022-09-23T04:57:37.065Z,22.9300
2022-09-23T04:58:39.293Z,22.9500
2022-09-23T04:59:41.625Z,22.9200
2022-09-23T05:00:41.844Z,22.9400
2022-09-23T05:01:44.207Z,22.9600
2022-09-23T05:02:46.414Z,22.9000
2022-09-23T05:03:48.725Z,22.9200
2022-09-23T05:04:51.070Z,22.8800
2022-09-23T05:05:53.401Z,22.8600
2022-09-23T05:06:53.579Z,22.8700
2022-09-23T05:07:55.946Z,22.8600
2022-09-23T05:08:58.220Z,22.9000
2022-09-23T05:10:00.518Z,22.9000
2022-09-23T05:11:02.818Z,22.8700
2022-09-23T05:12:05.073Z,22.8900
2022-09-23T05:13:07.380Z,22.9000
2022-09-23T05:14:07.483Z,22.9100
2022-09-23T05:15:09.788Z,22.9100
2022-09-23T05:16:12.237Z,22.8700
2022-09-23T05:17:14.355Z,22.8400
2022-09-23T05:18:17.856Z,22.8600
2022-09-23T05:19:16.801Z,22.8600
2022-09-23T05:20:19.090Z,22.8800
2022-09-23T05:21:21.389Z,22.8600
2022-09-23T05:22:23.698Z,22.9000
2022-09-23T05:23:26.020Z,22.8200
2022-09-23T05:24:28.289Z,22.8500
2022-09-23T05:25:28.447Z,22.8500
2022-09-23T05:26:30.765Z,22.8600
2022-09-23T05:27:33.072Z,22.9000
2022-09-23T05:28:35.429Z,22.8500
2022-09-23T05:29:37.694Z,22.8200
2022-09-23T05:30:40.134Z,22.8400
2022-09-23T05:31:42.391Z,22.8600
2022-09-23T05:32:44.591Z,22.8200
2022-09-23T05:33:46.903Z,22.8300
2022-09-23T05:34:49.159Z,22.8500
2022-09-23T05:35:49.255Z,22.8300
2022-09-23T05:36:51.487Z,22.8700
2022-09-23T05:37:53.734Z,22.8800
2022-09-23T05:38:56.046Z,22.8700
2022-09-23T05:39:56.153Z,22.9000
2022-09-23T05:40:58.457Z,22.8600
2022-09-23T05:42:00.737Z,22.8600
2022-09-23T05:43:03.132Z,22.8400
2022-09-23T05:44:05.326Z,22.8300
2022-09-23T05:45:07.566Z,22.8000
2022-09-23T05:46:09.878Z,22.8000
2022-09-23T05:47:12.063Z,22.8100
2022-09-23T05:48:14.336Z,22.8400
2022-09-23T05:49:16.654Z,22.8100
2022-09-23T05:50:18.901Z,22.8300
2022-09-23T05:51:19.045Z,22.8300
2022-09-23T05:52:21.325Z,22.8300
2022-09-23T05:53:23.619Z,22.7900
2022-09-23T05:54:25.947Z,22.8000
2022-09-23T05:55:26.066Z,22.7800
2022-09-23T05:56:28.424Z,22.7700
2022-09-23T05:57:30.619Z,22.7500
2022-09-23T05:58:32.880Z,22.7300
2022-09-23T05:59:32.983Z,22.7300
2022-09-23T06:00:35.251Z,22.7500
2022-09-23T06:01:37.567Z,22.7900
2022-09-23T06:02:39.856Z,22.7900
2022-09-23T06:03:39.979Z,22.8000
2022-09-23T06:04:42.300Z,22.8200
2022-09-23T06:05:44.584Z,22.8300
2022-09-23T06:06:46.880Z,22.8200
2022-09-23T06:07:49.183Z,22.8100
2022-09-23T06:08:51.495Z,22.8100
2022-09-23T06:09:53.829Z,22.8100
2022-09-23T06:10:56.112Z,22.8200
2022-09-23T06:11:58.445Z,22.8200
2022-09-23T06:13:00.783Z,22.8300
2022-09-23T06:14:03.319Z,22.8300
2022-09-23T06:15:05.407Z,22.8500
2022-09-23T06:16:07.778Z,22.8300
2022-09-23T06:17:07.824Z,22.8200
2022-09-23T06:18:10.084Z,22.8200
2022-09-23T06:19:12.373Z,22.8000
2022-09-23T06:20:14.700Z,22.7900
2022-09-23T06:21:16.991Z,22.8200
2022-09-23T06:22:19.312Z,22.8400
2022-09-23T06:23:24.715Z,22.8400
2022-09-23T06:24:30.153Z,22.8600
2022-09-23T06:25:26.214Z,22.8800
2022-09-23T06:26:28.451Z,22.9000
2022-09-23T06:27:28.591Z,22.8800
2022-09-23T06:28:30.860Z,22.8600
2022-09-23T06:29:33.141Z,22.8300
2022-09-23T06:30:35.467Z,22.8300
2022-09-23T06:31:35.653Z,22.8000
2022-09-23T06:32:37.829Z,22.7600
2022-09-23T06:33:40.092Z,22.7900
2022-09-23T06:34:51.102Z,22.8400
2022-09-23T06:36:51.308Z,22.9500
2022-09-23T06:37:53.436Z,23.0500
2022-09-23T06:38:54.513Z,23.0800
2022-09-23T06:39:55.758Z,23.0600
2022-09-23T06:40:58.027Z,23.0900
2022-09-23T06:42:00.325Z,23.1100
2022-09-23T06:43:02.596Z,23.1100
2022-09-23T06:44:02.742Z,23.1200
2022-09-23T06:45:04.998Z,23.1200
2022-09-23T06:46:07.413Z,23.1600
2022-09-23T06:47:09.648Z,21.6900
2022-09-23T06:48:12.122Z,20.1000
2022-09-23T06:49:12.295Z,19.2400
2022-09-23T06:50:14.708Z,18.4800
2022-09-23T06:51:17.214Z,17.7700
2022-09-23T06:52:19.642Z,17.5700
2022-09-23T06:53:19.896Z,17.4300
2022-09-23T06:54:22.320Z,17.8500
2022-09-23T06:55:24.798Z,17.4800
2022-09-23T06:56:25.093Z,17.5900
2022-09-23T06:57:27.602Z,17.0100
2022-09-23T06:58:30.050Z,16.8800
2022-09-23T06:59:32.494Z,17.0300
2022-09-23T07:00:32.767Z,16.9000
2022-09-23T07:01:35.520Z,17.1600
2022-09-23T07:02:37.758Z,17.1500
2022-09-23T07:03:37.829Z,17.3900
2022-09-23T07:04:40.139Z,18.0900
2022-09-23T07:05:42.505Z,18.7600
2022-09-23T07:06:44.855Z,19.3000
2022-09-23T07:07:47.209Z,19.7400
2022-09-23T07:08:49.486Z,20.1000
2022-09-23T07:09:49.640Z,20.3800
2022-09-23T07:10:51.922Z,20.6300
2022-09-23T07:11:54.239Z,20.8200
2022-09-23T07:12:56.521Z,20.9900
2022-09-23T07:13:58.774Z,21.1200
2022-09-23T07:15:01.050Z,21.2500
2022-09-23T07:16:01.275Z,21.3200
2022-09-23T07:17:03.460Z,21.4100
2022-09-23T07:18:05.766Z,21.5000
2022-09-23T07:19:08.045Z,21.5700
2022-09-23T07:20:10.262Z,21.6500
2022-09-23T07:21:12.531Z,21.7400
2022-09-23T07:22:14.791Z,21.8000
2022-09-23T07:23:17.091Z,21.8300
2022-09-23T07:24:17.187Z,21.8800
2022-09-23T07:25:19.448Z,21.9300
2022-09-23T07:26:21.649Z,21.9400
2022-09-23T07:27:23.881Z,21.9800
2022-09-23T07:28:26.186Z,22.0200
2022-09-23T07:29:30.078Z,22.0700
2022-09-23T07:30:30.701Z,22.0700
2022-09-23T07:31:39.094Z,22.1100
2022-09-23T07:32:44.876Z,22.1100
2022-09-23T07:33:37.490Z,22.1300
2022-09-23T07:34:37.545Z,22.1500
2022-09-23T07:35:39.774Z,22.1700
2022-09-23T07:36:41.963Z,22.1800
2022-09-23T07:37:44.195Z,22.2000
2022-09-23T07:38:46.450Z,22.2500
2022-09-23T07:39:48.629Z,22.2500
2022-09-23T07:40:50.884Z,22.3000
2022-09-23T07:41:53.135Z,22.3200
2022-09-23T07:42:55.447Z,22.3600
2022-09-23T07:43:55.617Z,22.4000
2022-09-23T07:44:57.896Z,22.4000
2022-09-23T07:46:00.308Z,22.4400
2022-09-23T07:47:02.522Z,22.4400
2022-09-23T07:48:04.836Z,22.4900
2022-09-23T07:49:05.158Z,22.5000
2022-09-23T07:50:07.330Z,22.5100
2022-09-23T07:51:09.653Z,22.5200
2022-09-23T07:52:11.964Z,22.5300
2022-09-23T07:53:14.284Z,22.5600
2022-09-23T07:54:14.488Z,22.5800
2022-09-23T07:55:20.272Z,22.6100
2022-09-23T07:56:19.115Z,22.5900
2022-09-23T07:57:21.446Z,22.6100
2022-09-23T07:58:23.788Z,22.6300
2022-09-23T07:59:26.098Z,22.6300
2022-09-23T08:00:26.219Z,22.6800
2022-09-23T08:01:28.553Z,22.6900
2022-09-23T08:02:30.887Z,22.6800
2022-09-23T08:03:33.177Z,22.7000
2022-09-23T08:04:35.556Z,22.7100
2022-09-23T08:05:37.936Z,22.7100
2022-09-23T08:06:37.997Z,22.7100
2022-09-23T08:07:40.295Z,22.6700
2022-09-23T08:08:42.549Z,22.7200
2022-09-23T08:09:44.830Z,22.7400
2022-09-23T08:10:47.083Z,22.7600
2022-09-23T08:11:49.373Z,22.7700
2022-09-23T08:12:51.685Z,22.7500
2022-09-23T08:13:51.828Z,22.7600
2022-09-23T08:14:54.143Z,22.7900
2022-09-23T08:15:56.495Z,22.7900
2022-09-23T08:16:56.614Z,22.7800
2022-09-23T08:17:58.851Z,22.7800
2022-09-23T08:19:01.302Z,22.7500
2022-09-23T08:20:03.460Z,22.7300
2022-09-23T08:22:29.623Z,22.6900
2022-09-23T08:23:31.814Z,22.7200
2022-09-23T08:24:34.080Z,22.7500
2022-09-23T08:25:36.375Z,22.7300
2022-09-23T08:26:38.572Z,22.7500
2022-09-23T08:27:38.654Z,22.7100
2022-09-23T08:28:40.873Z,22.7300
2022-09-23T08:29:43.031Z,22.7300
2022-09-23T08:30:45.313Z,22.7100
2022-09-23T08:31:47.427Z,22.7100
2022-09-23T08:32:49.622Z,22.7100
2022-09-23T08:33:51.886Z,22.7300
2022-09-23T08:34:54.131Z,22.7500
2022-09-23T08:35:56.400Z,22.7500
2022-09-23T08:36:58.638Z,22.7600
2022-09-23T08:38:00.926Z,22.7600
2022-09-23T08:39:03.169Z,22.7400
2022-09-23T08:40:03.491Z,22.7600
2022-09-23T08:41:05.524Z,22.7400
2022-09-23T08:42:07.713Z,22.7900
2022-09-23T08:43:09.966Z,22.8200
2022-09-23T08:44:12.238Z,22.8200
2022-09-23T08:45:14.474Z,22.8200
2022-09-23T08:46:16.845Z,22.8200
2022-09-23T08:47:18.994Z,22.8300
2022-09-23T08:48:21.244Z,22.8400
2022-09-23T08:49:23.493Z,22.8300
2022-09-23T08:50:23.616Z,22.8600
2022-09-23T08:51:25.885Z,22.8500
2022-09-23T08:52:28.151Z,22.8600
2022-09-23T08:53:30.459Z,22.8800
2022-09-23T08:54:32.763Z,22.8400
2022-09-23T08:55:35.023Z,22.8700
2022-09-23T08:56:37.333Z,22.9000
2022-09-23T08:57:37.432Z,22.9200
2022-09-23T08:58:39.708Z,22.9100
2022-09-23T08:59:41.963Z,22.9100
2022-09-23T09:00:44.210Z,22.9000
2022-09-23T09:01:46.566Z,22.9100
2022-09-23T09:02:48.756Z,22.9000
2022-09-23T09:03:50.950Z,22.8900
2022-09-23T09:04:53.215Z,22.8800
2022-09-23T09:05:55.458Z,22.8900
2022-09-23T09:07:03.403Z,22.9000
2022-09-23T09:07:57.873Z,22.9200
2022-09-23T09:09:00.265Z,22.9400
2022-09-23T09:10:02.457Z,22.9500
2022-09-23T09:11:04.696Z,22.9800
2022-09-23T09:12:06.934Z,22.9900
2022-09-23T09:13:09.175Z,22.9700
2022-09-23T09:14:11.401Z,23.0000
2022-09-23T09:15:13.643Z,22.9700
2022-09-23T09:16:13.761Z,22.9900
2022-09-23T09:17:16.007Z,22.9900
2022-09-23T09:18:18.229Z,22.9900
2022-09-23T09:19:20.455Z,22.9900
2022-09-23T09:20:22.740Z,23.0000
2022-09-23T09:21:25.028Z,23.0100
2022-09-23T09:22:28.338Z,23.0100
2022-09-23T09:23:29.546Z,23.0200
2022-09-23T09:24:31.865Z,23.0200
2022-09-23T09:25:34.148Z,23.0600
2022-09-23T09:26:34.286Z,23.0300
2022-09-23T09:27:36.605Z,23.0400
2022-09-23T09:28:38.869Z,23.0600
2022-09-23T09:29:41.672Z,23.0500
2022-09-23T09:30:44.077Z,23.0400
2022-09-23T09:31:43.498Z,22.9900
2022-09-23T09:32:45.820Z,22.9900
2022-09-23T09:33:48.001Z,22.9600
2022-09-23T09:34:50.289Z,22.9000
2022-09-23T09:35:52.550Z,22.8900
2022-09-23T09:36:54.785Z,22.8800
2022-09-23T09:37:57.095Z,22.8500
2022-09-23T09:38:59.492Z,22.8300
2022-09-23T09:40:01.896Z,22.8000
2022-09-23T09:41:01.783Z,22.8200
2022-09-23T09:42:04.042Z,22.8000
2022-09-23T09:43:06.366Z,22.7900
2022-09-23T09:44:08.623Z,22.7900
2022-09-23T09:45:10.923Z,22.7600
2022-09-23T09:46:13.265Z,22.7100
2022-09-23T09:47:13.383Z,22.6800
2022-09-23T09:48:15.702Z,22.6900
2022-09-23T09:49:17.979Z,22.6900
2022-09-23T09:50:20.316Z,22.6700
2022-09-23T09:51:22.563Z,22.7000
2022-09-23T09:52:24.862Z,22.7200
2022-09-23T09:53:24.981Z,22.6900
2022-09-23T09:54:27.232Z,22.7100
2022-09-23T09:55:29.567Z,22.7000
2022-09-23T09:56:31.838Z,22.7100
2022-09-23T09:57:36.096Z,22.7100
2022-09-23T09:58:36.398Z,22.7000
2022-09-23T09:59:38.657Z,22.7100
2022-09-23T10:00:40.877Z,22.7000
2022-09-23T10:01:41.021Z,22.6700
2022-09-23T10:02:43.233Z,22.6500
2022-09-23T10:03:45.473Z,22.6500
2022-09-23T10:04:47.720Z,22.6500
2022-09-23T10:05:49.955Z,22.6300
2022-09-23T10:06:52.218Z,22.5900
2022-09-23T10:07:54.479Z,22.5800
2022-09-23T10:08:56.768Z,22.6300
2022-09-23T10:10:06.090Z,22.6400
2022-09-23T10:10:59.102Z,22.5500
2022-09-23T10:12:01.329Z,22.5500
2022-09-23T10:13:03.598Z,22.5300
2022-09-23T10:14:05.857Z,22.5200
2022-09-23T10:15:08.110Z,22.5300
2022-09-23T10:16:10.413Z,22.5400
2022-09-23T10:17:12.709Z,22.5200
2022-09-23T10:18:14.978Z,22.4900
2022-09-23T10:19:15.109Z,22.4700
2022-09-23T10:20:17.353Z,22.4900
2022-09-23T10:21:21.285Z,22.4900
2022-09-23T10:22:21.894Z,22.5100
2022-09-23T10:23:24.200Z,22.5000
2022-09-23T10:24:26.513Z,22.5100
2022-09-23T10:25:28.785Z,22.4900
2022-09-23T10:26:31.112Z,22.4600
2022-09-23T10:27:31.266Z,22.4700
2022-09-23T10:28:33.582Z,22.4400
2022-09-23T10:29:35.927Z,22.4400
2022-09-23T10:30:38.294Z,22.4700
2022-09-23T10:31:40.513Z,22.5400
2022-09-23T10:32:42.816Z,22.5900
2022-09-23T10:33:42.974Z,22.6300
2022-09-23T10:34:45.277Z,22.6500
2022-09-23T10:35:47.570Z,22.6900
2022-09-23T10:36:49.829Z,22.6900
2022-09-23T10:37:52.088Z,22.7500
2022-09-23T10:38:54.344Z,22.8000
2022-09-23T10:39:56.633Z,22.7600
2022-09-23T10:40:56.860Z,22.7200
2022-09-23T10:41:59.008Z,22.7300
2022-09-23T10:43:01.287Z,22.7400
2022-09-23T10:44:03.682Z,22.7300
2022-09-23T10:45:05.876Z,22.7500
2022-09-23T10:46:06.967Z,22.7500
2022-09-23T10:47:09.155Z,22.6500
2022-09-23T10:48:10.385Z,22.6000
2022-09-23T10:49:12.629Z,22.7000
2022-09-23T10:50:14.850Z,22.7400
2022-09-23T10:51:17.077Z,22.7400
2022-09-23T10:52:19.361Z,22.7300
2022-09-23T10:53:21.589Z,22.7800
2022-09-23T10:54:23.881Z,22.8200
2022-09-23T10:55:26.420Z,22.8600
2022-09-23T10:56:26.347Z,22.9100
2022-09-23T10:57:28.689Z,22.9500
2022-09-23T10:58:30.953Z,22.9000
2022-09-23T10:59:33.264Z,22.9200
2022-09-23T11:00:35.576Z,22.9400
2022-09-23T11:01:37.900Z,22.9300
2022-09-23T11:02:40.121Z,22.6600
2022-09-23T11:03:40.303Z,22.6300
2022-09-23T11:04:42.813Z,22.5500
2022-09-23T11:05:45.055Z,22.4500
2022-09-23T11:06:47.391Z,22.4100
2022-09-23T11:07:49.711Z,22.3400
2022-09-23T11:08:49.859Z,22.4000
2022-09-23T11:09:52.150Z,22.4000
2022-09-23T11:10:54.484Z,22.4300
2022-09-23T11:11:54.632Z,22.4800
2022-09-23T11:12:57.006Z,22.4800
2022-09-23T11:13:59.316Z,22.6100
2022-09-23T11:14:59.504Z,22.5700
2022-09-23T11:16:01.881Z,22.6100
2022-09-23T11:17:04.279Z,22.6200
2022-09-23T11:18:06.534Z,22.6300
2022-09-23T11:19:08.836Z,22.7000
2022-09-23T11:20:08.987Z,22.7200
2022-09-23T11:21:11.278Z,22.7400
2022-09-23T11:22:11.410Z,22.7600
2022-09-23T11:23:13.767Z,22.6700
2022-09-23T11:24:16.060Z,22.6700
2022-09-23T11:25:16.231Z,22.6500
2022-09-23T11:26:18.584Z,22.6800
2022-09-23T11:27:20.886Z,22.7100
2022-09-23T11:28:23.232Z,22.7100
2022-09-23T11:29:25.519Z,22.7500
2022-09-23T11:30:27.854Z,22.8000
2022-09-23T11:32:13.105Z,22.7400
2022-09-23T11:33:15.238Z,22.8500
2022-09-23T11:34:17.463Z,22.9500
2022-09-23T11:35:19.619Z,22.9600
2022-09-23T11:36:21.782Z,23.0200
2022-09-23T11:37:24.002Z,23.0800
2022-09-23T11:38:26.275Z,23.1300
2022-09-23T11:39:28.303Z,23.1500
2022-09-23T11:40:30.494Z,23.2100
2022-09-23T11:41:32.603Z,23.2300
2022-09-23T11:42:34.851Z,23.2600
2022-09-23T11:43:37.030Z,23.2100
2022-09-23T11:44:39.243Z,23.1000
2022-09-23T11:45:41.487Z,23.1500
2022-09-23T11:46:43.667Z,23.1800
2022-09-23T11:47:45.920Z,23.2000
2022-09-23T11:48:48.100Z,23.2100
2022-09-23T11:49:50.316Z,23.2400
2022-09-23T11:50:52.508Z,23.2600
2022-09-23T11:51:54.708Z,23.2800
2022-09-23T11:52:56.946Z,23.2800
2022-09-23T11:53:56.930Z,23.2900
2022-09-23T11:54:59.193Z,23.3000
2022-09-23T11:56:01.314Z,23.3100
2022-09-23T11:57:03.526Z,23.3400
2022-09-23T11:58:08.796Z,23.3500
2022-09-23T11:59:08.265Z,23.3400
2022-09-23T12:00:10.132Z,23.3600
2022-09-23T12:01:12.342Z,23.3700
2022-09-23T12:02:20.107Z,23.3800
2022-09-23T12:03:14.730Z,23.3600
2022-09-23T12:04:20.749Z,23.3800
2022-09-23T12:05:19.240Z,23.4000
2022-09-23T12:06:21.323Z,23.4200
2022-09-23T12:07:23.599Z,23.4400
2022-09-23T12:08:25.917Z,23.4500
2022-09-23T12:09:53.943Z,23.4400
2022-09-23T12:10:28.233Z,23.4300
2022-09-23T12:11:30.485Z,23.4500
2022-09-23T12:12:32.739Z,23.4400
2022-09-23T12:13:34.931Z,23.4500
2022-09-23T12:14:37.078Z,23.4600
2022-09-23T12:15:39.207Z,23.4600
2022-09-23T12:16:41.450Z,23.4600
2022-09-23T12:17:43.542Z,23.4700
2022-09-23T12:18:45.824Z,23.4700
2022-09-23T12:19:48.044Z,23.4900
2022-09-23T12:20:50.242Z,23.4900
2022-09-23T12:21:52.400Z,23.4900
2022-09-23T12:22:54.543Z,23.5000
2022-09-23T12:23:56.781Z,23.5000
2022-09-23T12:24:58.970Z,23.5100
2022-09-23T12:26:01.219Z,23.5200
2022-09-23T12:27:01.269Z,23.5300
2022-09-23T12:28:03.529Z,23.5400
2022-09-23T12:29:05.862Z,23.5500
2022-09-23T12:30:08.066Z,23.5600
2022-09-23T12:31:10.362Z,23.5800
2022-09-23T12:32:12.525Z,23.5900
2022-09-23T12:33:14.784Z,23.5900